Disclaimer

Please do not use the information listed here in-flight or in-navigation, as they are not provided to us by the airports but are provided by volunteers, so they might be outdated.

Search


Regions


Airport information page

Radio informations:
Tower (TWR) - 118.3 MHz
Ground (GND) - 121.9 MHz
Approach (APP) - 121.3 MHz

Airport informations:
Latitude: 13° 20' 16.66" N
Longitude: 016° 39' 07.94" W
Elevation: 95 feet - 29 meters
Operating hours: 24 hour operations
Operating agency: Civil government, landing fees and diplomatic clearance may be required
Timezone: UTC 0
Fuel: Jet A1+, Jet A1 with icing inhibitor.

100/130 octane gasoline, leaded, MIL-L-5572F (GREEN)

Runway information:
14/32 - 11811 x 148 feet< - >3600 x 45 meters

Recent METARs:
GBYD 130200Z VRB03 CAVOK 23/18 Q1010
GBYD 130200Z VRB03 CAVOK 23/18 Q1010
GBYD 130400Z 31006KT CAVOK 23/18 Q1009

Airport on the map: